Nearby METAR Reports

 

KISP - Islip, New York, USA
Distance from station: SW 4mi, 6km
Updated: Wed, 12/12/2018 8:56 am EST
Few Clouds
Few Clouds
 Wind from NW
Wind: NW 7 mph , 11 km/h
Temperature: 37°F , 3°C
Wind Chill: 32°F , 0°C
Dew Point: 25°F , -4°C
Humidity: 60%
Barometer: 30.09 inHg , 1019 hPa
Clouds: Few Clouds
Visibility: 10 miles , 16 km
Cloud details: Few Clouds 7000 ft
2018/12/12 13:56 KISP 121356Z 32006KT 10SM FEW070 03/M04 A3009 RMK AO2 SLP189 T00281039
KHWV - Shirley, New York, USA
Distance from station: E 10mi, 16km
Updated: Wed, 12/12/2018 8:56 am EST
Clear
Clear
 Wind from NNW
Wind: NNW 16 mph , 26 km/h, Gust: 20 mph , 31 km/h
Temperature: 36°F , 2°C
Wind Chill: 26°F , -3°C
Dew Point: 23°F , -5°C
Humidity: 60%
Barometer: 30.10 inHg , 1019.3 hPa
Clouds: Clear
Visibility: 10 miles , 16 km
2018/12/12 13:56 KHWV 121356Z AUTO 33014G17KT 10SM CLR 02/M05 A3010 RMK AO2 SLP193 T00171050
 
KFRG - Farmingdale, New York, USA
Distance from station: WSW 20mi, 33km
Updated: Wed, 12/12/2018 8:53 am EST
Clear
Clear
 Wind from WNW
Wind: WNW 9 mph , 15 km/h
Temperature: 34°F , 1°C
Wind Chill: 27°F , -3°C
Dew Point: 23°F , -5°C
Humidity: 65%
Barometer: 30.11 inHg , 1019.6 hPa
Clouds: Clear
Visibility: 10 miles , 16 km
2018/12/12 13:53 KFRG 121353Z AUTO 30008KT 10SM CLR 01/M05 A3011 RMK AO2 SLP195 T00111050
KBDR - Bridgeport, Connecticut, USA
Distance from station: N 23mi, 37km
Updated: Wed, 12/12/2018 8:52 am EST
Clear
Clear
 Wind from NW
Wind: NW 7 mph , 11 km/h
Temperature: 34°F , 1°C
Wind Chill: 28°F , -2°C
Dew Point: 21°F , -6°C
Humidity: 60%
Barometer: 30.10 inHg , 1019.3 hPa
Clouds: Clear
Visibility: 10 miles , 16 km
2018/12/12 13:52 KBDR 121352Z 31006KT 10SM CLR 01/M06 A3010 RMK AO2 SLP192 T00111061
 
KFOK - Westhampton Beac, New York, USA
Distance from station: E 23mi, 37km
Updated: Wed, 12/12/2018 8:53 am EST
Clear
Clear
 Wind from NNW
Wind: NNW 16 mph , 26 km/h, Gust: 24 mph , 39 km/h
Temperature: 36°F , 2°C
Wind Chill: 26°F , -3°C
Dew Point: 21°F , -6°C
Humidity: 56%
Barometer: 30.09 inHg , 1019 hPa
Clouds: Clear
Visibility: 10 miles , 16 km
2018/12/12 13:53 KFOK 121353Z 33014G21KT 10SM CLR 02/M06 A3009 RMK AO2 SLP189 T00171056 $
KHVN - New Haven/Tweed, Connecticut, USA
Distance from station: NNE 31mi, 50km
Updated: Wed, 12/12/2018 7:53 am EST
Clear
Clear
 Wind from NW
Wind: NW 12 mph , 19 km/h
Temperature: 36°F , 2°C
Wind Chill: 28°F , -2°C
Dew Point: 25°F , -4°C
Humidity: 65%
Barometer: 30.08 inHg , 1018.6 hPa
Clouds: Clear
Visibility: 10 miles , 16 km
2018/12/12 12:53 KHVN 121253Z 32010KT 10SM CLR 02/M04 A3008
 
KHPN - White Plains, New York, USA
Distance from station: WNW 37mi, 60km
Updated: Wed, 12/12/2018 8:56 am EST
Clear
Clear
 Wind from WNW
Wind: WNW 8 mph , 13 km/h
Temperature: 34°F , 1°C
Wind Chill: 27°F , -3°C
Dew Point: 21°F , -6°C
Humidity: 60%
Barometer: 30.08 inHg , 1018.6 hPa
Clouds: Clear
Visibility: 10 miles , 16 km
2018/12/12 13:56 KHPN 121356Z 29007KT 10SM CLR 01/M06 A3008 RMK AO2 SLP192 T00111056
KJFK - Nyc/Jfk Arpt, New York, USA
Distance from station: WSW 40mi, 64km
Updated: Wed, 12/12/2018 8:51 am EST
Few Clouds
Few Clouds
 Wind from WNW
Wind: WNW 14 mph , 22 km/h, Gust: 21 mph , 33 km/h
Temperature: 37°F , 3°C
Wind Chill: 28°F , -2°C
Dew Point: 25°F , -4°C
Humidity: 60%
Barometer: 30.13 inHg , 1020.3 hPa
Clouds: Few Clouds
Visibility: 10 miles , 16 km
Cloud details: Few Clouds 2700 ft
Few Clouds 7000 ft
2018/12/12 13:51 KJFK 121351Z 30012G18KT 10SM FEW027 FEW070 03/M04 A3013 RMK AO2 SLP201 T00281044
 
KDXR - Danbury, Connecticut, USA
Distance from station: NNW 42mi, 68km
Updated: Wed, 12/12/2018 8:53 am EST
Clear
Clear
 Wind from calm
Wind: Calm
Temperature: 27°F , -3°C
Dew Point: 21°F , -6°C
Humidity: 80%
Barometer: 30.08 inHg , 1018.6 hPa
Clouds: Clear
Visibility: 8 miles , 13 km
2018/12/12 13:53 KDXR 121353Z 00000KT 8SM CLR M03/M06 A3008 RMK AO2 SLP191 T10281061
KHTO - East Hampton, New York, USA
Distance from station: E 43mi, 69km
Updated: Wed, 12/12/2018 8:55 am EST
Clear
Clear
 Wind from NW
Wind: NW 8 mph , 13 km/h, Gust: 18 mph , 30 km/h
Temperature: 34°F , 1°C
Wind Chill: 27°F , -3°C
Dew Point: 23°F , -5°C
Humidity: 65%
Barometer: 30.05 inHg , 1017.6 hPa
Clouds: Clear
Visibility: 10 miles , 16 km
2018/12/12 13:55 KHTO 121355Z AUTO 31007G16KT 280V340 10SM CLR 01/M05 A3005 RMK AO2 T00071055
 
KOXC - Oxford/Waterbury, Connecticut, USA
Distance from station: N 43mi, 70km
Updated: Wed, 12/12/2018 8:51 am EST
Few Clouds
Few Clouds
 Wind from WNW
Wind: WNW 5 mph , 7 km/h
Temperature: 28°F , -2°C
Wind Chill: 22°F , -6°C
Dew Point: 21°F , -6°C
Humidity: 74%
Barometer: 30.05 inHg , 1017.6 hPa
Clouds: Few Clouds
Visibility: 10 miles , 16 km
Cloud details: Few Clouds 5000 ft
2018/12/12 13:51 KOXC 121351Z 30004KT 10SM FEW050 M02/M06 A3005 RMK AO2 SLP196 T10171056
KLGA - Nyc/La Guardia, New York, USA
Distance from station: W 44mi, 70km
Updated: Wed, 12/12/2018 8:51 am EST
Few Clouds
Few Clouds
 Wind from NW
Wind: NW 14 mph , 22 km/h, Gust: 23 mph , 37 km/h
Temperature: 36°F , 2°C
Wind Chill: 27°F , -3°C
Dew Point: 21°F , -6°C
Humidity: 56%
Barometer: 30.11 inHg , 1019.6 hPa
Clouds: Few Clouds
Visibility: 10 miles , 16 km
Cloud details: Few Clouds 6500 ft
2018/12/12 13:51 KLGA 121351Z 31012G20KT 10SM FEW065 02/M06 A3011 RMK AO2 SLP197 T00221056
 
KSNC - Chester, Connecticut, USA
Distance from station: NE 47mi, 76km
Updated: Wed, 12/12/2018 8:55 am EST
Clear
Clear
 Wind from NNW
Wind: NNW 6 mph , 9 km/h
Temperature: 32°F , 0°C
Wind Chill: 26°F , -3°C
Dew Point: 21°F , -6°C
Humidity: 64%
Barometer: 30.04 inHg , 1017.3 hPa
Clouds: Clear
Visibility: 9 miles , 14 km
2018/12/12 13:55 KSNC 121355Z AUTO 33005KT 9SM CLR 00/M06 A3004 RMK AO2
KMMK - Meriden, Connecticut, USA
Distance from station: NNE 48mi, 77km
Updated: Wed, 12/12/2018 8:53 am EST
Clear
Clear
 Wind from WNW
Wind: WNW 12 mph , 19 km/h
Temperature: 34°F , 1°C
Wind Chill: 25°F , -4°C
Dew Point: 19°F , -7°C
Humidity: 56%
Barometer: 30.06 inHg , 1017.9 hPa
Clouds: Clear
Visibility: 10 miles , 16 km
2018/12/12 13:53 KMMK 121353Z AUTO 30010KT 10SM CLR 01/M07 A3006 RMK AO2 SLP182 T00061067
 
KNYC - Nyc/Central Park, New York, USA
Distance from station: W 48mi, 77km
Updated: Wed, 12/12/2018 8:51 am EST
Clear
Clear
 
Temperature: 36°F , 2°C
Dew Point: 23°F , -5°C
Humidity: 60%
Barometer: 30.13 inHg , 1020.3 hPa
Clouds: Clear
Visibility: 8 miles , 13 km
2018/12/12 13:51 KNYC 121351Z AUTO 8SM CLR 02/M05 A3013 RMK AO2 SLP196 T00221050 $